sensor_id;sensor_type;location;lat;lon;timestamp;pressure;altitude;pressure_sealevel;temperature;humidity
46876;BME280;32866;50.160;14.768;2022-11-04T00:01:38;98442.53;;;6.89;100.00
46876;BME280;32866;50.160;14.768;2022-11-04T00:04:03;98415.59;;;6.65;100.00
46876;BME280;32866;50.160;14.768;2022-11-04T00:06:29;98437.25;;;6.82;100.00
46876;BME280;32866;50.160;14.768;2022-11-04T00:08:56;98419.97;;;6.76;100.00
46876;BME280;32866;50.160;14.768;2022-11-04T00:11:22;98437.84;;;7.02;100.00
46876;BME280;32866;50.160;14.768;2022-11-04T00:14:07;98431.16;;;7.16;100.00
46876;BME280;32866;50.160;14.768;2022-11-04T00:16:33;98439.78;;;7.28;100.00
46876;BME280;32866;50.160;14.768;2022-11-04T00:19:17;98436.56;;;7.55;100.00
46876;BME280;32866;50.160;14.768;2022-11-04T00:21:43;98416.28;;;7.56;100.00
46876;BME280;32866;50.160;14.768;2022-11-04T00:24:27;98413.50;;;7.69;100.00
46876;BME280;32866;50.160;14.768;2022-11-04T00:27:08;98427.97;;;7.78;100.00
46876;BME280;32866;50.160;14.768;2022-11-04T00:29:53;98391.19;;;7.61;100.00
46876;BME280;32866;50.160;14.768;2022-11-04T00:32:18;98432.00;;;7.87;100.00
46876;BME280;32866;50.160;14.768;2022-11-04T00:35:02;98401.91;;;7.77;100.00
46876;BME280;32866;50.160;14.768;2022-11-04T00:37:28;98432.44;;;8.07;100.00
46876;BME280;32866;50.160;14.768;2022-11-04T00:39:53;98398.25;;;7.93;100.00
46876;BME280;32866;50.160;14.768;2022-11-04T00:42:18;98427.69;;;8.21;100.00
46876;BME280;32866;50.160;14.768;2022-11-04T00:44:44;98417.03;;;8.13;100.00
46876;BME280;32866;50.160;14.768;2022-11-04T00:47:09;98374.00;;;7.95;100.00
46876;BME280;32866;50.160;14.768;2022-11-04T00:49:34;98372.72;;;8.09;100.00
46876;BME280;32866;50.160;14.768;2022-11-04T00:52:00;98371.59;;;8.20;100.00
46876;BME280;32866;50.160;14.768;2022-11-04T00:54:25;98406.22;;;8.54;100.00
46876;BME280;32866;50.160;14.768;2022-11-04T00:56:50;98378.09;;;8.44;100.00
46876;BME280;32866;50.160;14.768;2022-11-04T00:59:17;98394.00;;;8.68;100.00
46876;BME280;32866;50.160;14.768;2022-11-04T01:01:43;98395.25;;;8.76;100.00
46876;BME280;32866;50.160;14.768;2022-11-04T01:04:08;98389.97;;;8.82;100.00
46876;BME280;32866;50.160;14.768;2022-11-04T01:06:34;98361.63;;;8.57;100.00
46876;BME280;32866;50.160;14.768;2022-11-04T01:09:04;98377.72;;;8.96;100.00
46876;BME280;32866;50.160;14.768;2022-11-04T01:11:30;98351.69;;;8.72;100.00
46876;BME280;32866;50.160;14.768;2022-11-04T01:13:56;98384.72;;;9.06;100.00
46876;BME280;32866;50.160;14.768;2022-11-04T01:16:23;98381.22;;;9.05;100.00
46876;BME280;32866;50.160;14.768;2022-11-04T01:18:48;98386.84;;;9.11;100.00
46876;BME280;32866;50.160;14.768;2022-11-04T01:21:15;98383.53;;;9.16;100.00
46876;BME280;32866;50.160;14.768;2022-11-04T01:23:42;98394.63;;;9.22;100.00
46876;BME280;32866;50.160;14.768;2022-11-04T01:26:12;98379.00;;;9.22;100.00
46876;BME280;32866;50.160;14.768;2022-11-04T01:28:38;98379.28;;;9.24;100.00
46876;BME280;32866;50.160;14.768;2022-11-04T01:31:05;98376.59;;;9.34;100.00
46876;BME280;32866;50.160;14.768;2022-11-04T01:33:31;98376.44;;;9.37;100.00
46876;BME280;32866;50.160;14.768;2022-11-04T01:36:01;98366.56;;;9.40;100.00
46876;BME280;32866;50.160;14.768;2022-11-04T01:38:27;98364.44;;;9.44;100.00
46876;BME280;32866;50.160;14.768;2022-11-04T01:40:52;98368.06;;;9.50;100.00
46876;BME280;32866;50.160;14.768;2022-11-04T01:43:19;98358.97;;;9.53;100.00
46876;BME280;32866;50.160;14.768;2022-11-04T01:45:52;98364.13;;;9.51;100.00
46876;BME280;32866;50.160;14.768;2022-11-04T01:48:28;98351.38;;;9.39;100.00
46876;BME280;32866;50.160;14.768;2022-11-04T01:50:55;98357.47;;;9.52;100.00
46876;BME280;32866;50.160;14.768;2022-11-04T01:53:29;98363.53;;;9.56;100.00
46876;BME280;32866;50.160;14.768;2022-11-04T01:55:58;98319.34;;;9.30;100.00
46876;BME280;32866;50.160;14.768;2022-11-04T01:58:26;98361.41;;;9.60;100.00
46876;BME280;32866;50.160;14.768;2022-11-04T02:00:53;98332.53;;;9.41;100.00
46876;BME280;32866;50.160;14.768;2022-11-04T02:03:22;98341.94;;;9.58;100.00
46876;BME280;32866;50.160;14.768;2022-11-04T02:05:50;98342.13;;;9.64;100.00
46876;BME280;32866;50.160;14.768;2022-11-04T02:08:15;98345.31;;;9.62;100.00
46876;BME280;32866;50.160;14.768;2022-11-04T02:10:47;98322.19;;;9.45;100.00
46876;BME280;32866;50.160;14.768;2022-11-04T02:13:15;98328.59;;;9.60;100.00
46876;BME280;32866;50.160;14.768;2022-11-04T02:18:24;98340.13;;;9.74;100.00
46876;BME280;32866;50.160;14.768;2022-11-04T02:24:13;98333.13;;;9.63;100.00
46876;BME280;32866;50.160;14.768;2022-11-04T02:29:43;98321.00;;;9.55;100.00
46876;BME280;32866;50.160;14.768;2022-11-04T02:35:11;98322.81;;;9.68;100.00
46876;BME280;32866;50.160;14.768;2022-11-04T02:43:22;98316.09;;;9.78;100.00
46876;BME280;32866;50.160;14.768;2022-11-04T02:45:51;98307.00;;;9.81;100.00
46876;BME280;32866;50.160;14.768;2022-11-04T02:51:04;98302.13;;;9.76;100.00
46876;BME280;32866;50.160;14.768;2022-11-04T02:53:46;98299.69;;;9.87;100.00
46876;BME280;32866;50.160;14.768;2022-11-04T02:56:14;98303.78;;;9.82;100.00
46876;BME280;32866;50.160;14.768;2022-11-04T02:58:49;98300.28;;;9.82;100.00
46876;BME280;32866;50.160;14.768;2022-11-04T03:01:17;98294.06;;;9.81;100.00
46876;BME280;32866;50.160;14.768;2022-11-04T03:03:48;98295.13;;;9.75;100.00
46876;BME280;32866;50.160;14.768;2022-11-04T03:06:18;98289.50;;;9.88;100.00
46876;BME280;32866;50.160;14.768;2022-11-04T03:08:49;98289.78;;;9.90;100.00
46876;BME280;32866;50.160;14.768;2022-11-04T03:11:23;98285.41;;;9.83;100.00
46876;BME280;32866;50.160;14.768;2022-11-04T03:13:54;98287.50;;;9.88;100.00
46876;BME280;32866;50.160;14.768;2022-11-04T03:16:35;98255.38;;;9.55;100.00
46876;BME280;32866;50.160;14.768;2022-11-04T03:19:15;98295.28;;;9.80;100.00
46876;BME280;32866;50.160;14.768;2022-11-04T03:21:54;98300.59;;;9.84;100.00
46876;BME280;32866;50.160;14.768;2022-11-04T03:24:22;98265.38;;;9.58;100.00
46876;BME280;32866;50.160;14.768;2022-11-04T03:26:54;98297.88;;;9.84;100.00
46876;BME280;32866;50.160;14.768;2022-11-04T03:29:29;98305.47;;;9.80;100.00
46876;BME280;32866;50.160;14.768;2022-11-04T03:32:22;98296.22;;;9.50;100.00
46876;BME280;32866;50.160;14.768;2022-11-04T03:34:49;98335.13;;;9.63;100.00
46876;BME280;32866;50.160;14.768;2022-11-04T03:37:15;98326.75;;;9.66;100.00
46876;BME280;32866;50.160;14.768;2022-11-04T03:39:40;98319.78;;;9.65;100.00
46876;BME280;32866;50.160;14.768;2022-11-04T03:42:08;98324.03;;;9.57;100.00
46876;BME280;32866;50.160;14.768;2022-11-04T03:44:52;98317.34;;;9.49;100.00
46876;BME280;32866;50.160;14.768;2022-11-04T03:47:20;98324.19;;;9.54;100.00
46876;BME280;32866;50.160;14.768;2022-11-04T03:49:47;98325.41;;;9.62;100.00
46876;BME280;32866;50.160;14.768;2022-11-04T03:52:14;98323.41;;;9.53;100.00
46876;BME280;32866;50.160;14.768;2022-11-04T03:54:41;98316.41;;;9.24;100.00
46876;BME280;32866;50.160;14.768;2022-11-04T04:00:12;98376.59;;;9.89;100.00
46876;BME280;32866;50.160;14.768;2022-11-04T04:05:41;98352.88;;;9.58;100.00
46876;BME280;32866;50.160;14.768;2022-11-04T04:08:34;98391.81;;;9.81;100.00
46876;BME280;32866;50.160;14.768;2022-11-04T04:19:39;98345.00;;;9.42;100.00
46876;BME280;32866;50.160;14.768;2022-11-04T04:22:11;98378.13;;;9.81;100.00
46876;BME280;32866;50.160;14.768;2022-11-04T04:24:41;98355.31;;;9.56;100.00
46876;BME280;32866;50.160;14.768;2022-11-04T04:27:25;98342.69;;;9.31;100.00
46876;BME280;32866;50.160;14.768;2022-11-04T04:29:56;98377.34;;;9.43;100.00
46876;BME280;32866;50.160;14.768;2022-11-04T04:32:25;98380.56;;;9.42;100.00
46876;BME280;32866;50.160;14.768;2022-11-04T04:34:52;98360.91;;;9.25;100.00
46876;BME280;32866;50.160;14.768;2022-11-04T04:37:38;98366.84;;;9.33;100.00
46876;BME280;32866;50.160;14.768;2022-11-04T04:40:08;98362.47;;;9.35;100.00
46876;BME280;32866;50.160;14.768;2022-11-04T04:42:54;98356.22;;;9.35;100.00
46876;BME280;32866;50.160;14.768;2022-11-04T04:45:48;98361.53;;;9.29;100.00
46876;BME280;32866;50.160;14.768;2022-11-04T04:48:15;98357.72;;;9.26;100.00
46876;BME280;32866;50.160;14.768;2022-11-04T04:50:47;98331.88;;;9.00;100.00
46876;BME280;32866;50.160;14.768;2022-11-04T04:53:14;98337.53;;;9.24;100.00
46876;BME280;32866;50.160;14.768;2022-11-04T04:55:39;98329.91;;;9.09;100.00
46876;BME280;32866;50.160;14.768;2022-11-04T04:58:05;98351.97;;;9.24;100.00
46876;BME280;32866;50.160;14.768;2022-11-04T05:00:30;98358.31;;;9.21;100.00
46876;BME280;32866;50.160;14.768;2022-11-04T05:02:56;98349.03;;;9.00;100.00
46876;BME280;32866;50.160;14.768;2022-11-04T05:05:22;98354.69;;;9.15;100.00
46876;BME280;32866;50.160;14.768;2022-11-04T05:07:47;98355.47;;;9.43;100.00
46876;BME280;32866;50.160;14.768;2022-11-04T05:10:14;98343.47;;;9.22;100.00
46876;BME280;32866;50.160;14.768;2022-11-04T05:12:40;98349.53;;;9.36;100.00
46876;BME280;32866;50.160;14.768;2022-11-04T05:15:25;98336.13;;;9.01;100.00
46876;BME280;32866;50.160;14.768;2022-11-04T05:17:58;98359.56;;;9.39;100.00
46876;BME280;32866;50.160;14.768;2022-11-04T05:20:25;98357.91;;;9.32;100.00
46876;BME280;32866;50.160;14.768;2022-11-04T05:22:50;98336.28;;;9.06;100.00
46876;BME280;32866;50.160;14.768;2022-11-04T05:25:16;98353.75;;;9.18;100.00
46876;BME280;32866;50.160;14.768;2022-11-04T05:27:41;98364.44;;;9.25;100.00
46876;BME280;32866;50.160;14.768;2022-11-04T05:30:07;98355.31;;;9.38;100.00
46876;BME280;32866;50.160;14.768;2022-11-04T05:32:33;98369.28;;;9.40;100.00
46876;BME280;32866;50.160;14.768;2022-11-04T05:34:59;98358.34;;;9.31;100.00
46876;BME280;32866;50.160;14.768;2022-11-04T05:37:24;98357.91;;;9.32;100.00
46876;BME280;32866;50.160;14.768;2022-11-04T05:39:50;98356.38;;;9.31;100.00
46876;BME280;32866;50.160;14.768;2022-11-04T05:42:16;98355.91;;;9.23;100.00
46876;BME280;32866;50.160;14.768;2022-11-04T05:44:41;98355.28;;;9.19;100.00
46876;BME280;32866;50.160;14.768;2022-11-04T05:47:06;98326.41;;;8.90;100.00
46876;BME280;32866;50.160;14.768;2022-11-04T05:49:32;98361.06;;;9.12;100.00
46876;BME280;32866;50.160;14.768;2022-11-04T05:51:57;98322.72;;;8.84;100.00
46876;BME280;32866;50.160;14.768;2022-11-04T05:54:23;98344.94;;;9.05;100.00
46876;BME280;32866;50.160;14.768;2022-11-04T05:56:48;98358.44;;;8.99;100.00
46876;BME280;32866;50.160;14.768;2022-11-04T05:59:13;98351.94;;;9.06;100.00
46876;BME280;32866;50.160;14.768;2022-11-04T06:01:40;98329.88;;;8.91;100.00
46876;BME280;32866;50.160;14.768;2022-11-04T06:04:12;98349.53;;;9.26;100.00
46876;BME280;32866;50.160;14.768;2022-11-04T06:06:38;98318.53;;;9.02;100.00
46876;BME280;32866;50.160;14.768;2022-11-04T06:09:04;98335.38;;;9.09;100.00
46876;BME280;32866;50.160;14.768;2022-11-04T06:11:31;98360.28;;;9.12;100.00
46876;BME280;32866;50.160;14.768;2022-11-04T06:13:57;98351.81;;;9.19;100.00
46876;BME280;32866;50.160;14.768;2022-11-04T06:16:22;98356.06;;;9.38;100.00
46876;BME280;32866;50.160;14.768;2022-11-04T06:18:48;98347.13;;;9.47;100.00
46876;BME280;32866;50.160;14.768;2022-11-04T06:23:42;98349.19;;;9.06;100.00
46876;BME280;32866;50.160;14.768;2022-11-04T06:26:09;98352.84;;;9.21;100.00
46876;BME280;32866;50.160;14.768;2022-11-04T06:28:34;98352.25;;;9.17;100.00
46876;BME280;32866;50.160;14.768;2022-11-04T06:31:01;98362.00;;;9.46;100.00
46876;BME280;32866;50.160;14.768;2022-11-04T06:33:28;98370.50;;;9.29;100.00
46876;BME280;32866;50.160;14.768;2022-11-04T06:36:02;98359.56;;;9.29;100.00
46876;BME280;32866;50.160;14.768;2022-11-04T06:38:29;98356.22;;;9.25;100.00
46876;BME280;32866;50.160;14.768;2022-11-04T06:40:56;98353.50;;;9.25;100.00
46876;BME280;32866;50.160;14.768;2022-11-04T06:43:21;98345.75;;;9.24;100.00
46876;BME280;32866;50.160;14.768;2022-11-04T06:45:54;98345.59;;;9.27;100.00
46876;BME280;32866;50.160;14.768;2022-11-04T06:48:19;98334.06;;;9.23;100.00
46876;BME280;32866;50.160;14.768;2022-11-04T06:50:45;98318.69;;;9.07;100.00
46876;BME280;32866;50.160;14.768;2022-11-04T06:53:10;98346.22;;;9.59;100.00
46876;BME280;32866;50.160;14.768;2022-11-04T06:55:35;98321.44;;;9.44;100.00
46876;BME280;32866;50.160;14.768;2022-11-04T06:58:01;98346.81;;;9.54;100.00
46876;BME280;32866;50.160;14.768;2022-11-04T07:00:26;98335.88;;;9.54;100.00
46876;BME280;32866;50.160;14.768;2022-11-04T07:02:51;98355.78;;;9.45;100.00
46876;BME280;32866;50.160;14.768;2022-11-04T07:05:17;98356.38;;;9.68;100.00
46876;BME280;32866;50.160;14.768;2022-11-04T07:07:42;98355.63;;;9.68;100.00
46876;BME280;32866;50.160;14.768;2022-11-04T07:10:08;98361.41;;;9.60;100.00
46876;BME280;32866;50.160;14.768;2022-11-04T07:12:33;98354.09;;;9.48;100.00
46876;BME280;32866;50.160;14.768;2022-11-04T07:14:59;98359.59;;;9.76;100.00
46876;BME280;32866;50.160;14.768;2022-11-04T07:17:24;98370.53;;;9.76;100.00
46876;BME280;32866;50.160;14.768;2022-11-04T07:19:49;98374.31;;;9.69;100.00
46876;BME280;32866;50.160;14.768;2022-11-04T07:22:15;98378.13;;;9.81;100.00
46876;BME280;32866;50.160;14.768;2022-11-04T07:24:40;98351.38;;;9.66;100.00
46876;BME280;32866;50.160;14.768;2022-11-04T07:27:05;98343.78;;;9.52;100.00
46876;BME280;32866;50.160;14.768;2022-11-04T07:29:32;98379.66;;;9.73;100.00
46876;BME280;32866;50.160;14.768;2022-11-04T07:31:57;98372.81;;;9.59;100.00
46876;BME280;32866;50.160;14.768;2022-11-04T07:34:23;98376.44;;;9.56;100.00
46876;BME280;32866;50.160;14.768;2022-11-04T07:36:48;98359.28;;;9.37;100.00
46876;BME280;32866;50.160;14.768;2022-11-04T07:39:13;98378.13;;;9.62;100.00
46876;BME280;32866;50.160;14.768;2022-11-04T07:41:39;98372.34;;;9.60;100.00
46876;BME280;32866;50.160;14.768;2022-11-04T07:44:04;98355.94;;;9.51;100.00
46876;BME280;32866;50.160;14.768;2022-11-04T07:46:30;98357.91;;;9.60;100.00
46876;BME280;32866;50.160;14.768;2022-11-04T07:48:57;98351.69;;;9.69;100.00
46876;BME280;32866;50.160;14.768;2022-11-04T07:51:24;98339.81;;;9.53;100.00
46876;BME280;32866;50.160;14.768;2022-11-04T07:53:50;98376.59;;;9.61;100.00
46876;BME280;32866;50.160;14.768;2022-11-04T07:56:15;98379.00;;;9.50;100.00
46876;BME280;32866;50.160;14.768;2022-11-04T07:58:43;98367.47;;;9.37;100.00
46876;BME280;32866;50.160;14.768;2022-11-04T08:01:12;98379.16;;;9.46;100.00
46876;BME280;32866;50.160;14.768;2022-11-04T08:03:38;98379.63;;;9.36;100.00
46876;BME280;32866;50.160;14.768;2022-11-04T08:06:05;98380.53;;;9.33;100.00
46876;BME280;32866;50.160;14.768;2022-11-04T08:08:30;98385.09;;;9.36;100.00
46876;BME280;32866;50.160;14.768;2022-11-04T08:11:17;98385.84;;;9.36;100.00
46876;BME280;32866;50.160;14.768;2022-11-04T08:13:43;98379.44;;;9.21;100.00
46876;BME280;32866;50.160;14.768;2022-11-04T08:16:18;98374.28;;;9.14;100.00
46876;BME280;32866;50.160;14.768;2022-11-04T08:18:44;98374.28;;;9.14;100.00
46876;BME280;32866;50.160;14.768;2022-11-04T08:21:11;98351.13;;;8.87;100.00
46876;BME280;32866;50.160;14.768;2022-11-04T08:23:37;98351.94;;;9.06;100.00
46876;BME280;32866;50.160;14.768;2022-11-04T08:26:06;98374.56;;;9.25;100.00
46876;BME280;32866;50.160;14.768;2022-11-04T08:28:32;98372.63;;;9.35;100.00
46876;BME280;32866;50.160;14.768;2022-11-04T08:31:07;98369.88;;;9.25;100.00
46876;BME280;32866;50.160;14.768;2022-11-04T08:33:33;98366.22;;;9.10;100.00
46876;BME280;32866;50.160;14.768;2022-11-04T08:36:06;98364.69;;;9.18;100.00
46876;BME280;32866;50.160;14.768;2022-11-04T08:38:34;98365.78;;;9.21;100.00
46876;BME280;32866;50.160;14.768;2022-11-04T08:41:00;98365.78;;;9.21;100.00
46876;BME280;32866;50.160;14.768;2022-11-04T08:43:27;98358.94;;;9.35;100.00
46876;BME280;32866;50.160;14.768;2022-11-04T08:45:53;98360.63;;;9.41;100.00
46876;BME280;32866;50.160;14.768;2022-11-04T08:48:18;98346.75;;;8.99;100.00
46876;BME280;32866;50.160;14.768;2022-11-04T08:50:48;98344.31;;;9.01;100.00
46876;BME280;32866;50.160;14.768;2022-11-04T08:53:13;98361.31;;;8.96;100.00
46876;BME280;32866;50.160;14.768;2022-11-04T08:55:39;98357.41;;;9.06;100.00
46876;BME280;32866;50.160;14.768;2022-11-04T08:58:04;98373.78;;;9.06;100.00
46876;BME280;32866;50.160;14.768;2022-11-04T09:00:30;98373.19;;;9.02;100.00
46876;BME280;32866;50.160;14.768;2022-11-04T09:02:57;98365.25;;;8.95;100.00
46876;BME280;32866;50.160;14.768;2022-11-04T09:05:23;98365.25;;;8.95;100.00
46876;BME280;32866;50.160;14.768;2022-11-04T09:07:48;98374.22;;;8.95;100.00
46876;BME280;32866;50.160;14.768;2022-11-04T09:10:14;98344.16;;;8.54;100.00
46876;BME280;32866;50.160;14.768;2022-11-04T09:12:41;98326.50;;;8.68;100.00
46876;BME280;32866;50.160;14.768;2022-11-04T09:15:06;98366.34;;;8.57;100.00
46876;BME280;32866;50.160;14.768;2022-11-04T09:17:32;98345.13;;;8.61;100.00
46876;BME280;32866;50.160;14.768;2022-11-04T09:19:57;98375.06;;;8.73;100.00
46876;BME280;32866;50.160;14.768;2022-11-04T09:22:23;98325.06;;;8.54;100.00
46876;BME280;32866;50.160;14.768;2022-11-04T09:24:48;98355.69;;;8.90;100.00
46876;BME280;32866;50.160;14.768;2022-11-04T09:27:13;98331.00;;;8.62;100.00
46876;BME280;32866;50.160;14.768;2022-11-04T09:29:39;98316.16;;;8.63;100.00
46876;BME280;32866;50.160;14.768;2022-11-04T09:32:06;98340.00;;;8.81;100.00
46876;BME280;32866;50.160;14.768;2022-11-04T09:34:32;98349.00;;;8.82;100.00
46876;BME280;32866;50.160;14.768;2022-11-04T09:36:57;98326.44;;;8.59;100.00
46876;BME280;32866;50.160;14.768;2022-11-04T09:39:23;98355.81;;;8.77;100.00
46876;BME280;32866;50.160;14.768;2022-11-04T09:44:55;98348.47;;;8.65;100.00
46876;BME280;32866;50.160;14.768;2022-11-04T09:47:23;98349.06;;;8.60;100.00
46876;BME280;32866;50.160;14.768;2022-11-04T09:49:52;98349.31;;;8.52;100.00
46876;BME280;32866;50.160;14.768;2022-11-04T09:52:27;98360.56;;;8.54;100.00
46876;BME280;32866;50.160;14.768;2022-11-04T09:55:05;98347.75;;;8.42;100.00
46876;BME280;32866;50.160;14.768;2022-11-04T09:57:33;98328.03;;;8.38;100.00
46876;BME280;32866;50.160;14.768;2022-11-04T09:59:59;98298.69;;;8.29;100.00
46876;BME280;32866;50.160;14.768;2022-11-04T10:18:41;98348.28;;;8.50;100.00
46876;BME280;32866;50.160;14.768;2022-11-04T10:24:19;98342.63;;;8.44;100.00
46876;BME280;32866;50.160;14.768;2022-11-04T10:26:53;98338.53;;;8.49;100.00
46876;BME280;32866;50.160;14.768;2022-11-04T10:29:40;98329.97;;;8.60;100.00
46876;BME280;32866;50.160;14.768;2022-11-04T10:32:17;98305.19;;;8.23;100.00
46876;BME280;32866;50.160;14.768;2022-11-04T10:37:16;98338.28;;;8.34;100.00
46876;BME280;32866;50.160;14.768;2022-11-04T10:39:44;98328.97;;;8.44;100.00
46876;BME280;32866;50.160;14.768;2022-11-04T10:42:12;98320.88;;;8.41;100.00
46876;BME280;32866;50.160;14.768;2022-11-04T10:44:39;98313.94;;;8.40;100.00
46876;BME280;32866;50.160;14.768;2022-11-04T10:52:36;98304.41;;;8.44;100.00
46876;BME280;32866;50.160;14.768;2022-11-04T10:55:04;98306.88;;;8.29;100.00
46876;BME280;32866;50.160;14.768;2022-11-04T10:57:37;98311.94;;;8.40;100.00
46876;BME280;32866;50.160;14.768;2022-11-04T11:00:03;98308.56;;;8.36;100.00
46876;BME280;32866;50.160;14.768;2022-11-04T11:07:42;98312.16;;;8.24;100.00
46876;BME280;32866;50.160;14.768;2022-11-04T11:12:53;98296.00;;;8.07;100.00
46876;BME280;32866;50.160;14.768;2022-11-04T11:18:09;98296.31;;;8.09;100.00
46876;BME280;32866;50.160;14.768;2022-11-04T11:20:36;98281.63;;;8.07;100.00
46876;BME280;32866;50.160;14.768;2022-11-04T11:23:03;98287.25;;;8.12;100.00
46876;BME280;32866;50.160;14.768;2022-11-04T11:25:34;98286.06;;;8.13;100.00
46876;BME280;32866;50.160;14.768;2022-11-04T11:28:02;98283.91;;;8.08;100.00
46876;BME280;32866;50.160;14.768;2022-11-04T11:33:17;98273.00;;;8.08;100.00
46876;BME280;32866;50.160;14.768;2022-11-04T11:35:50;98276.34;;;8.12;100.00
46876;BME280;32866;50.160;14.768;2022-11-04T11:38:20;98275.72;;;8.08;100.00
46876;BME280;32866;50.160;14.768;2022-11-04T11:40:46;98244.38;;;7.82;100.00
46876;BME280;32866;50.160;14.768;2022-11-04T11:43:22;98272.25;;;8.08;100.00
46876;BME280;32866;50.160;14.768;2022-11-04T11:45:49;98270.25;;;8.08;100.00
46876;BME280;32866;50.160;14.768;2022-11-04T11:48:33;98266.66;;;8.11;100.00
46876;BME280;32866;50.160;14.768;2022-11-04T11:51:03;98272.25;;;8.08;100.00
46876;BME280;32866;50.160;14.768;2022-11-04T11:53:29;98260.28;;;8.14;100.00
46876;BME280;32866;50.160;14.768;2022-11-04T11:56:09;98261.03;;;8.15;100.00
46876;BME280;32866;50.160;14.768;2022-11-04T11:58:54;98260.53;;;8.07;100.00
46876;BME280;32866;50.160;14.768;2022-11-04T12:01:41;98281.75;;;8.03;100.00
46876;BME280;32866;50.160;14.768;2022-11-04T12:04:11;98268.41;;;8.05;100.00
46876;BME280;32866;50.160;14.768;2022-11-04T12:09:15;98231.31;;;7.76;100.00
46876;BME280;32866;50.160;14.768;2022-11-04T12:12:07;98276.31;;;8.03;100.00
46876;BME280;32866;50.160;14.768;2022-11-04T12:14:53;98264.59;;;8.03;100.00
46876;BME280;32866;50.160;14.768;2022-11-04T12:23:57;98254.16;;;8.01;100.00
46876;BME280;32866;50.160;14.768;2022-11-04T12:39:49;98218.78;;;8.20;100.00
46876;BME280;32866;50.160;14.768;2022-11-04T12:47:33;98220.03;;;8.37;100.00
46876;BME280;32866;50.160;14.768;2022-11-04T12:50:27;98191.78;;;8.22;100.00
46876;BME280;32866;50.160;14.768;2022-11-04T12:56:04;98218.19;;;8.34;100.00
46876;BME280;32866;50.160;14.768;2022-11-04T13:01:32;98208.50;;;8.42;100.00
46876;BME280;32866;50.160;14.768;2022-11-04T13:04:16;98215.16;;;8.32;100.00
46876;BME280;32866;50.160;14.768;2022-11-04T13:06:46;98219.88;;;8.31;100.00
46876;BME280;32866;50.160;14.768;2022-11-04T13:12:20;98209.56;;;8.35;100.00
46876;BME280;32866;50.160;14.768;2022-11-04T13:14:54;98223.03;;;8.30;100.00
46876;BME280;32866;50.160;14.768;2022-11-04T13:17:26;98223.38;;;8.41;100.00
46876;BME280;32866;50.160;14.768;2022-11-04T13:19:58;98236.56;;;8.33;100.00
46876;BME280;32866;50.160;14.768;2022-11-04T13:22:27;98224.84;;;8.24;100.00
46876;BME280;32866;50.160;14.768;2022-11-04T13:25:23;98248.66;;;8.23;100.00
46876;BME280;32866;50.160;14.768;2022-11-04T13:27:50;98249.69;;;8.26;100.00
46876;BME280;32866;50.160;14.768;2022-11-04T13:30:24;98254.25;;;8.20;100.00
46876;BME280;32866;50.160;14.768;2022-11-04T13:36:02;98240.59;;;8.20;100.00
46876;BME280;32866;50.160;14.768;2022-11-04T13:38:34;98243.63;;;8.22;100.00
46876;BME280;32866;50.160;14.768;2022-11-04T13:41:24;98252.00;;;8.27;100.00
46876;BME280;32866;50.160;14.768;2022-11-04T13:43:58;98239.34;;;8.11;100.00
46876;BME280;32866;50.160;14.768;2022-11-04T13:46:28;98226.31;;;8.15;100.00
46876;BME280;32866;50.160;14.768;2022-11-04T13:51:41;98231.81;;;8.25;100.00
46876;BME280;32866;50.160;14.768;2022-11-04T13:54:32;98233.31;;;8.26;100.00
46876;BME280;32866;50.160;14.768;2022-11-04T13:57:11;98234.22;;;8.23;100.00
46876;BME280;32866;50.160;14.768;2022-11-04T13:59:38;98235.75;;;8.24;100.00
46876;BME280;32866;50.160;14.768;2022-11-04T14:04:35;98234.22;;;8.23;100.00
46876;BME280;32866;50.160;14.768;2022-11-04T14:07:07;98224.50;;;8.12;100.00
46876;BME280;32866;50.160;14.768;2022-11-04T14:09:54;98232.72;;;8.22;100.00
46876;BME280;32866;50.160;14.768;2022-11-04T14:12:28;98243.63;;;8.22;100.00
46876;BME280;32866;50.160;14.768;2022-11-04T14:15:03;98219.16;;;8.09;100.00
46876;BME280;32866;50.160;14.768;2022-11-04T14:22:36;98228.09;;;8.09;100.00
46876;BME280;32866;50.160;14.768;2022-11-04T14:25:41;98244.53;;;8.18;100.00
46876;BME280;32866;50.160;14.768;2022-11-04T14:43:53;98266.38;;;8.18;100.00
46876;BME280;32866;50.160;14.768;2022-11-04T14:46:22;98276.25;;;8.25;100.00
46876;BME280;32866;50.160;14.768;2022-11-04T14:48:53;98263.03;;;8.24;100.00
46876;BME280;32866;50.160;14.768;2022-11-04T14:51:28;98260.91;;;8.18;100.00
46876;BME280;32866;50.160;14.768;2022-11-04T14:54:18;98235.06;;;8.01;100.00
46876;BME280;32866;50.160;14.768;2022-11-04T14:56:44;98278.03;;;8.19;100.00
46876;BME280;32866;50.160;14.768;2022-11-04T14:59:20;98272.19;;;8.30;100.00
46876;BME280;32866;50.160;14.768;2022-11-04T15:01:47;98273.81;;;8.27;100.00
46876;BME280;32866;50.160;14.768;2022-11-04T15:04:33;98275.50;;;8.34;100.00
46876;BME280;32866;50.160;14.768;2022-11-04T15:07:01;98281.53;;;8.20;100.00
46876;BME280;32866;50.160;14.768;2022-11-04T15:09:31;98262.06;;;8.08;100.00
46876;BME280;32866;50.160;14.768;2022-11-04T15:12:10;98262.25;;;8.14;100.00
46876;BME280;32866;50.160;14.768;2022-11-04T15:14:56;98239.31;;;8.02;100.00
46876;BME280;32866;50.160;14.768;2022-11-04T15:17:26;98272.75;;;8.25;100.00
46876;BME280;32866;50.160;14.768;2022-11-04T15:19:55;98279.84;;;8.13;100.00
46876;BME280;32866;50.160;14.768;2022-11-04T15:22:21;98273.88;;;8.05;100.00
46876;BME280;32866;50.160;14.768;2022-11-04T15:24:47;98296.06;;;8.16;100.00
46876;BME280;32866;50.160;14.768;2022-11-04T15:27:29;98293.34;;;8.16;100.00
46876;BME280;32866;50.160;14.768;2022-11-04T15:30:00;98291.34;;;8.08;100.00
46876;BME280;32866;50.160;14.768;2022-11-04T15:32:27;98288.78;;;8.13;100.00